sensor_id;sensor_type;location;lat;lon;timestamp;temperature;humidity
19168;DHT22;9716;53.114;18.040;2022-07-24T00:01:42;17.60;99.90
19168;DHT22;9716;53.114;18.040;2022-07-24T00:04:11;17.50;99.90
19168;DHT22;9716;53.114;18.040;2022-07-24T00:06:40;17.50;99.90
19168;DHT22;9716;53.114;18.040;2022-07-24T00:09:10;17.50;99.90
19168;DHT22;9716;53.114;18.040;2022-07-24T00:11:39;17.40;99.90
19168;DHT22;9716;53.114;18.040;2022-07-24T00:14:08;17.40;99.90
19168;DHT22;9716;53.114;18.040;2022-07-24T00:16:37;17.40;99.90
19168;DHT22;9716;53.114;18.040;2022-07-24T00:19:06;17.40;99.90
19168;DHT22;9716;53.114;18.040;2022-07-24T00:21:35;17.40;99.90
19168;DHT22;9716;53.114;18.040;2022-07-24T00:24:04;17.30;99.90
19168;DHT22;9716;53.114;18.040;2022-07-24T00:26:35;17.30;99.90
19168;DHT22;9716;53.114;18.040;2022-07-24T00:29:04;17.30;99.90
19168;DHT22;9716;53.114;18.040;2022-07-24T00:31:33;17.30;99.90
19168;DHT22;9716;53.114;18.040;2022-07-24T00:34:02;17.20;99.90
19168;DHT22;9716;53.114;18.040;2022-07-24T00:36:31;17.20;99.90
19168;DHT22;9716;53.114;18.040;2022-07-24T00:39:00;17.20;99.90
19168;DHT22;9716;53.114;18.040;2022-07-24T00:41:29;17.20;99.90
19168;DHT22;9716;53.114;18.040;2022-07-24T00:44:02;17.20;99.90
19168;DHT22;9716;53.114;18.040;2022-07-24T00:46:31;17.10;99.90
19168;DHT22;9716;53.114;18.040;2022-07-24T00:49:00;17.20;99.90
19168;DHT22;9716;53.114;18.040;2022-07-24T00:51:30;17.10;99.90
19168;DHT22;9716;53.114;18.040;2022-07-24T00:53:59;17.10;99.90
19168;DHT22;9716;53.114;18.040;2022-07-24T00:56:28;17.10;99.90
19168;DHT22;9716;53.114;18.040;2022-07-24T00:58:57;17.00;99.90
19168;DHT22;9716;53.114;18.040;2022-07-24T01:01:27;17.00;99.90
19168;DHT22;9716;53.114;18.040;2022-07-24T01:03:57;17.00;99.90
19168;DHT22;9716;53.114;18.040;2022-07-24T01:06:26;17.00;99.90
19168;DHT22;9716;53.114;18.040;2022-07-24T01:08:55;17.00;99.90
19168;DHT22;9716;53.114;18.040;2022-07-24T01:11:24;17.00;99.90
19168;DHT22;9716;53.114;18.040;2022-07-24T01:13:54;16.90;99.90
19168;DHT22;9716;53.114;18.040;2022-07-24T01:16:23;17.00;99.90
19168;DHT22;9716;53.114;18.040;2022-07-24T01:18:53;16.90;99.90
19168;DHT22;9716;53.114;18.040;2022-07-24T01:21:23;16.90;99.90
19168;DHT22;9716;53.114;18.040;2022-07-24T01:23:52;17.00;99.90
19168;DHT22;9716;53.114;18.040;2022-07-24T01:26:21;17.00;99.90
19168;DHT22;9716;53.114;18.040;2022-07-24T01:28:50;16.90;99.90
19168;DHT22;9716;53.114;18.040;2022-07-24T01:31:18;16.90;99.90
19168;DHT22;9716;53.114;18.040;2022-07-24T01:33:47;16.90;99.90
19168;DHT22;9716;53.114;18.040;2022-07-24T01:36:17;16.90;99.90
19168;DHT22;9716;53.114;18.040;2022-07-24T01:38:47;16.90;99.90
19168;DHT22;9716;53.114;18.040;2022-07-24T01:41:17;16.80;99.90
19168;DHT22;9716;53.114;18.040;2022-07-24T01:43:46;16.80;99.90
19168;DHT22;9716;53.114;18.040;2022-07-24T01:46:15;16.80;99.90
19168;DHT22;9716;53.114;18.040;2022-07-24T01:48:44;16.80;99.90
19168;DHT22;9716;53.114;18.040;2022-07-24T01:51:13;16.80;99.90
19168;DHT22;9716;53.114;18.040;2022-07-24T01:53:42;16.80;99.90
19168;DHT22;9716;53.114;18.040;2022-07-24T01:56:12;16.70;99.90
19168;DHT22;9716;53.114;18.040;2022-07-24T01:58:41;16.70;99.90
19168;DHT22;9716;53.114;18.040;2022-07-24T02:01:11;16.70;99.90
19168;DHT22;9716;53.114;18.040;2022-07-24T02:03:39;16.70;99.90
19168;DHT22;9716;53.114;18.040;2022-07-24T02:06:08;16.70;99.90
19168;DHT22;9716;53.114;18.040;2022-07-24T02:08:37;16.60;99.90
19168;DHT22;9716;53.114;18.040;2022-07-24T02:11:06;16.60;99.90
19168;DHT22;9716;53.114;18.040;2022-07-24T02:13:36;16.60;99.90
19168;DHT22;9716;53.114;18.040;2022-07-24T02:16:05;16.60;99.90
19168;DHT22;9716;53.114;18.040;2022-07-24T02:18:34;16.60;99.90
19168;DHT22;9716;53.114;18.040;2022-07-24T02:21:03;16.50;99.90
19168;DHT22;9716;53.114;18.040;2022-07-24T02:23:32;16.50;99.90
19168;DHT22;9716;53.114;18.040;2022-07-24T02:26:01;16.50;99.90
19168;DHT22;9716;53.114;18.040;2022-07-24T02:28:30;16.40;99.90
19168;DHT22;9716;53.114;18.040;2022-07-24T02:31:00;16.40;99.90
19168;DHT22;9716;53.114;18.040;2022-07-24T02:33:29;16.30;99.90
19168;DHT22;9716;53.114;18.040;2022-07-24T02:35:58;16.30;99.90
19168;DHT22;9716;53.114;18.040;2022-07-24T02:38:27;16.30;99.90
19168;DHT22;9716;53.114;18.040;2022-07-24T02:40:55;16.30;99.90
19168;DHT22;9716;53.114;18.040;2022-07-24T02:43:24;16.30;99.90
19168;DHT22;9716;53.114;18.040;2022-07-24T02:45:53;16.30;99.90
19168;DHT22;9716;53.114;18.040;2022-07-24T02:48:23;16.20;99.90
19168;DHT22;9716;53.114;18.040;2022-07-24T02:50:52;16.20;99.90
19168;DHT22;9716;53.114;18.040;2022-07-24T02:53:22;16.20;99.90
19168;DHT22;9716;53.114;18.040;2022-07-24T02:55:50;16.20;99.90
19168;DHT22;9716;53.114;18.040;2022-07-24T02:58:19;16.20;99.90
19168;DHT22;9716;53.114;18.040;2022-07-24T03:00:48;16.20;99.90
19168;DHT22;9716;53.114;18.040;2022-07-24T03:03:17;16.20;99.90
19168;DHT22;9716;53.114;18.040;2022-07-24T03:05:47;16.20;99.90
19168;DHT22;9716;53.114;18.040;2022-07-24T03:08:15;16.20;99.90
19168;DHT22;9716;53.114;18.040;2022-07-24T03:10:44;16.20;99.90
19168;DHT22;9716;53.114;18.040;2022-07-24T03:13:13;16.20;99.90
19168;DHT22;9716;53.114;18.040;2022-07-24T03:15:42;16.30;99.90
19168;DHT22;9716;53.114;18.040;2022-07-24T03:18:11;16.30;99.90
19168;DHT22;9716;53.114;18.040;2022-07-24T03:20:49;16.30;99.90
19168;DHT22;9716;53.114;18.040;2022-07-24T03:23:18;16.30;99.90
19168;DHT22;9716;53.114;18.040;2022-07-24T03:25:46;16.40;99.90
19168;DHT22;9716;53.114;18.040;2022-07-24T03:28:15;16.50;99.90
19168;DHT22;9716;53.114;18.040;2022-07-24T03:30:44;16.50;99.90
19168;DHT22;9716;53.114;18.040;2022-07-24T03:33:12;16.60;99.90
19168;DHT22;9716;53.114;18.040;2022-07-24T03:35:41;16.60;99.90
19168;DHT22;9716;53.114;18.040;2022-07-24T03:38:11;16.70;99.90
19168;DHT22;9716;53.114;18.040;2022-07-24T03:40:40;16.80;99.90
19168;DHT22;9716;53.114;18.040;2022-07-24T03:43:09;16.90;99.90
19168;DHT22;9716;53.114;18.040;2022-07-24T03:45:38;17.00;99.90
19168;DHT22;9716;53.114;18.040;2022-07-24T03:48:07;17.20;99.90
19168;DHT22;9716;53.114;18.040;2022-07-24T03:50:36;17.40;99.90
19168;DHT22;9716;53.114;18.040;2022-07-24T03:53:04;17.50;99.90
19168;DHT22;9716;53.114;18.040;2022-07-24T03:55:36;17.70;99.90
19168;DHT22;9716;53.114;18.040;2022-07-24T03:58:05;17.90;99.90
19168;DHT22;9716;53.114;18.040;2022-07-24T04:00:33;18.20;99.90
19168;DHT22;9716;53.114;18.040;2022-07-24T04:03:02;18.50;99.90
19168;DHT22;9716;53.114;18.040;2022-07-24T04:05:31;18.70;99.90
19168;DHT22;9716;53.114;18.040;2022-07-24T04:08:01;19.00;99.90
19168;DHT22;9716;53.114;18.040;2022-07-24T04:10:35;19.30;99.90
19168;DHT22;9716;53.114;18.040;2022-07-24T04:13:04;19.50;99.90
19168;DHT22;9716;53.114;18.040;2022-07-24T04:15:33;19.80;99.90
19168;DHT22;9716;53.114;18.040;2022-07-24T04:18:02;20.00;99.90
19168;DHT22;9716;53.114;18.040;2022-07-24T04:20:30;20.30;99.90
19168;DHT22;9716;53.114;18.040;2022-07-24T04:22:59;20.40;99.90
19168;DHT22;9716;53.114;18.040;2022-07-24T04:25:28;20.70;99.90
19168;DHT22;9716;53.114;18.040;2022-07-24T04:27:58;20.90;99.90
19168;DHT22;9716;53.114;18.040;2022-07-24T04:30:27;21.10;99.90
19168;DHT22;9716;53.114;18.040;2022-07-24T04:32:56;21.30;99.90
19168;DHT22;9716;53.114;18.040;2022-07-24T04:35:25;21.50;99.90
19168;DHT22;9716;53.114;18.040;2022-07-24T04:37:54;21.80;99.90
19168;DHT22;9716;53.114;18.040;2022-07-24T04:40:23;22.00;99.90
19168;DHT22;9716;53.114;18.040;2022-07-24T04:42:51;22.20;99.90
19168;DHT22;9716;53.114;18.040;2022-07-24T04:45:21;22.40;99.90
19168;DHT22;9716;53.114;18.040;2022-07-24T04:47:50;22.60;99.90
19168;DHT22;9716;53.114;18.040;2022-07-24T04:50:19;22.70;99.90
19168;DHT22;9716;53.114;18.040;2022-07-24T04:52:48;23.00;99.90
19168;DHT22;9716;53.114;18.040;2022-07-24T04:55:16;23.30;99.90
19168;DHT22;9716;53.114;18.040;2022-07-24T04:57:45;23.40;99.90
19168;DHT22;9716;53.114;18.040;2022-07-24T05:00:14;23.50;99.90
19168;DHT22;9716;53.114;18.040;2022-07-24T05:02:44;23.50;99.90
19168;DHT22;9716;53.114;18.040;2022-07-24T05:05:13;23.50;99.90
19168;DHT22;9716;53.114;18.040;2022-07-24T05:07:41;23.50;99.90
19168;DHT22;9716;53.114;18.040;2022-07-24T05:10:10;23.50;99.90
19168;DHT22;9716;53.114;18.040;2022-07-24T05:12:39;23.50;99.90
19168;DHT22;9716;53.114;18.040;2022-07-24T05:15:09;23.50;99.90
19168;DHT22;9716;53.114;18.040;2022-07-24T05:17:38;23.40;99.90
19168;DHT22;9716;53.114;18.040;2022-07-24T05:20:09;23.40;99.90
19168;DHT22;9716;53.114;18.040;2022-07-24T05:22:41;23.20;99.90
19168;DHT22;9716;53.114;18.040;2022-07-24T05:25:09;23.10;99.90
19168;DHT22;9716;53.114;18.040;2022-07-24T05:27:38;22.90;99.90
19168;DHT22;9716;53.114;18.040;2022-07-24T05:30:08;22.80;99.90
19168;DHT22;9716;53.114;18.040;2022-07-24T05:32:37;22.70;99.90
19168;DHT22;9716;53.114;18.040;2022-07-24T05:35:06;22.60;99.90
19168;DHT22;9716;53.114;18.040;2022-07-24T05:37:36;22.50;99.90
19168;DHT22;9716;53.114;18.040;2022-07-24T05:40:07;22.50;99.90
19168;DHT22;9716;53.114;18.040;2022-07-24T05:42:35;22.60;99.90
19168;DHT22;9716;53.114;18.040;2022-07-24T05:45:05;22.50;99.90
19168;DHT22;9716;53.114;18.040;2022-07-24T05:47:37;22.50;99.90
19168;DHT22;9716;53.114;18.040;2022-07-24T05:50:10;22.50;99.90
19168;DHT22;9716;53.114;18.040;2022-07-24T05:52:41;22.40;99.90
19168;DHT22;9716;53.114;18.040;2022-07-24T05:55:10;22.40;99.90
19168;DHT22;9716;53.114;18.040;2022-07-24T05:57:44;22.50;99.90
19168;DHT22;9716;53.114;18.040;2022-07-24T06:00:13;22.50;99.90
19168;DHT22;9716;53.114;18.040;2022-07-24T06:02:49;22.60;99.90
19168;DHT22;9716;53.114;18.040;2022-07-24T06:05:19;23.00;99.90
19168;DHT22;9716;53.114;18.040;2022-07-24T06:07:49;23.60;99.90
19168;DHT22;9716;53.114;18.040;2022-07-24T06:10:17;24.20;99.90
19168;DHT22;9716;53.114;18.040;2022-07-24T06:12:52;24.60;99.90
19168;DHT22;9716;53.114;18.040;2022-07-24T06:15:21;25.00;99.90
19168;DHT22;9716;53.114;18.040;2022-07-24T06:17:50;25.10;99.90
19168;DHT22;9716;53.114;18.040;2022-07-24T06:20:19;25.00;99.90
19168;DHT22;9716;53.114;18.040;2022-07-24T06:22:49;25.00;99.90
19168;DHT22;9716;53.114;18.040;2022-07-24T06:25:17;24.90;99.90
19168;DHT22;9716;53.114;18.040;2022-07-24T06:27:48;24.90;99.90
19168;DHT22;9716;53.114;18.040;2022-07-24T06:30:18;24.70;99.90
19168;DHT22;9716;53.114;18.040;2022-07-24T06:32:47;24.60;99.90
19168;DHT22;9716;53.114;18.040;2022-07-24T06:35:16;24.40;99.90
19168;DHT22;9716;53.114;18.040;2022-07-24T06:37:44;24.20;99.90
19168;DHT22;9716;53.114;18.040;2022-07-24T06:40:17;24.00;99.90
19168;DHT22;9716;53.114;18.040;2022-07-24T06:42:47;23.90;99.90
19168;DHT22;9716;53.114;18.040;2022-07-24T06:45:16;23.70;99.90
19168;DHT22;9716;53.114;18.040;2022-07-24T06:47:45;23.60;99.90
19168;DHT22;9716;53.114;18.040;2022-07-24T06:50:14;23.60;99.90
19168;DHT22;9716;53.114;18.040;2022-07-24T06:52:43;23.70;99.90
19168;DHT22;9716;53.114;18.040;2022-07-24T06:55:13;23.90;99.90
19168;DHT22;9716;53.114;18.040;2022-07-24T06:57:43;23.90;99.90
19168;DHT22;9716;53.114;18.040;2022-07-24T07:00:12;24.00;99.90
19168;DHT22;9716;53.114;18.040;2022-07-24T07:02:41;24.20;99.90
19168;DHT22;9716;53.114;18.040;2022-07-24T07:05:09;24.50;99.90
19168;DHT22;9716;53.114;18.040;2022-07-24T07:07:38;24.70;99.90
19168;DHT22;9716;53.114;18.040;2022-07-24T07:10:08;25.00;99.90
19168;DHT22;9716;53.114;18.040;2022-07-24T07:12:36;25.20;99.50
19168;DHT22;9716;53.114;18.040;2022-07-24T07:15:10;25.30;99.10
19168;DHT22;9716;53.114;18.040;2022-07-24T07:17:39;25.50;98.70
19168;DHT22;9716;53.114;18.040;2022-07-24T07:20:11;25.60;98.30
19168;DHT22;9716;53.114;18.040;2022-07-24T07:22:41;25.70;97.90
19168;DHT22;9716;53.114;18.040;2022-07-24T07:25:10;25.90;97.40
19168;DHT22;9716;53.114;18.040;2022-07-24T07:27:39;25.90;96.80
19168;DHT22;9716;53.114;18.040;2022-07-24T07:30:10;25.80;96.70
19168;DHT22;9716;53.114;18.040;2022-07-24T07:32:40;25.60;96.60
19168;DHT22;9716;53.114;18.040;2022-07-24T07:35:09;25.40;96.70
19168;DHT22;9716;53.114;18.040;2022-07-24T07:37:48;25.30;97.10
19168;DHT22;9716;53.114;18.040;2022-07-24T07:40:17;25.10;97.40
19168;DHT22;9716;53.114;18.040;2022-07-24T07:42:46;25.00;97.40
19168;DHT22;9716;53.114;18.040;2022-07-24T07:45:16;24.90;97.40
19168;DHT22;9716;53.114;18.040;2022-07-24T07:47:45;24.70;97.60
19168;DHT22;9716;53.114;18.040;2022-07-24T07:50:14;24.70;98.00
19168;DHT22;9716;53.114;18.040;2022-07-24T07:52:42;24.60;98.20
19168;DHT22;9716;53.114;18.040;2022-07-24T07:55:12;24.70;98.20
19168;DHT22;9716;53.114;18.040;2022-07-24T07:57:40;24.70;98.10
19168;DHT22;9716;53.114;18.040;2022-07-24T08:00:32;24.60;98.20
19168;DHT22;9716;53.114;18.040;2022-07-24T08:03:02;24.50;98.40
19168;DHT22;9716;53.114;18.040;2022-07-24T08:05:31;24.50;98.50
19168;DHT22;9716;53.114;18.040;2022-07-24T08:08:00;24.50;98.40
19168;DHT22;9716;53.114;18.040;2022-07-24T08:10:29;24.40;98.50
19168;DHT22;9716;53.114;18.040;2022-07-24T08:12:57;24.30;98.70
19168;DHT22;9716;53.114;18.040;2022-07-24T08:15:26;24.10;99.00
19168;DHT22;9716;53.114;18.040;2022-07-24T08:17:57;23.90;99.40
19168;DHT22;9716;53.114;18.040;2022-07-24T08:20:27;23.80;99.60
19168;DHT22;9716;53.114;18.040;2022-07-24T08:22:56;23.60;99.90
19168;DHT22;9716;53.114;18.040;2022-07-24T08:25:25;23.50;99.90
19168;DHT22;9716;53.114;18.040;2022-07-24T08:27:54;23.40;99.90
19168;DHT22;9716;53.114;18.040;2022-07-24T08:30:23;23.30;99.90
19168;DHT22;9716;53.114;18.040;2022-07-24T08:32:52;23.30;99.90
19168;DHT22;9716;53.114;18.040;2022-07-24T08:35:23;23.40;99.90
19168;DHT22;9716;53.114;18.040;2022-07-24T08:37:59;23.40;99.90
19168;DHT22;9716;53.114;18.040;2022-07-24T08:40:32;23.40;99.90
19168;DHT22;9716;53.114;18.040;2022-07-24T08:43:02;23.30;99.90
19168;DHT22;9716;53.114;18.040;2022-07-24T08:45:34;23.30;99.90
19168;DHT22;9716;53.114;18.040;2022-07-24T08:48:04;23.20;99.90
19168;DHT22;9716;53.114;18.040;2022-07-24T08:50:38;23.10;99.90
19168;DHT22;9716;53.114;18.040;2022-07-24T08:53:07;23.20;99.90
19168;DHT22;9716;53.114;18.040;2022-07-24T08:55:36;23.30;99.90
19168;DHT22;9716;53.114;18.040;2022-07-24T08:58:05;23.30;99.90
19168;DHT22;9716;53.114;18.040;2022-07-24T09:00:34;23.40;99.90
19168;DHT22;9716;53.114;18.040;2022-07-24T09:03:03;23.40;99.90
19168;DHT22;9716;53.114;18.040;2022-07-24T09:05:32;23.50;99.90
19168;DHT22;9716;53.114;18.040;2022-07-24T09:08:09;23.40;99.90
19168;DHT22;9716;53.114;18.040;2022-07-24T09:10:39;23.40;99.90
19168;DHT22;9716;53.114;18.040;2022-07-24T09:13:12;23.40;99.90
19168;DHT22;9716;53.114;18.040;2022-07-24T09:15:45;23.40;99.90
19168;DHT22;9716;53.114;18.040;2022-07-24T09:18:28;23.40;99.90
19168;DHT22;9716;53.114;18.040;2022-07-24T09:20:57;23.50;99.90
19168;DHT22;9716;53.114;18.040;2022-07-24T09:23:27;23.50;99.90
19168;DHT22;9716;53.114;18.040;2022-07-24T09:25:56;23.60;99.90
19168;DHT22;9716;53.114;18.040;2022-07-24T09:28:25;23.70;99.90
19168;DHT22;9716;53.114;18.040;2022-07-24T09:31:00;23.80;99.90
19168;DHT22;9716;53.114;18.040;2022-07-24T09:33:35;24.00;99.90
19168;DHT22;9716;53.114;18.040;2022-07-24T09:36:11;24.10;99.90
19168;DHT22;9716;53.114;18.040;2022-07-24T09:38:47;24.30;99.90
19168;DHT22;9716;53.114;18.040;2022-07-24T09:41:23;24.40;99.90
19168;DHT22;9716;53.114;18.040;2022-07-24T09:43:59;24.50;99.90
19168;DHT22;9716;53.114;18.040;2022-07-24T09:46:28;24.70;99.70
19168;DHT22;9716;53.114;18.040;2022-07-24T09:48:59;24.80;99.50
19168;DHT22;9716;53.114;18.040;2022-07-24T09:51:29;24.90;99.30
19168;DHT22;9716;53.114;18.040;2022-07-24T09:54:00;25.10;99.00
19168;DHT22;9716;53.114;18.040;2022-07-24T09:56:29;25.30;98.40
19168;DHT22;9716;53.114;18.040;2022-07-24T09:58:58;25.40;97.80
19168;DHT22;9716;53.114;18.040;2022-07-24T10:01:28;25.50;97.50
19168;DHT22;9716;53.114;18.040;2022-07-24T10:03:58;25.70;97.30
19168;DHT22;9716;53.114;18.040;2022-07-24T10:06:28;25.90;97.00
19168;DHT22;9716;53.114;18.040;2022-07-24T10:08:59;26.00;96.40
19168;DHT22;9716;53.114;18.040;2022-07-24T10:11:34;26.20;95.90
19168;DHT22;9716;53.114;18.040;2022-07-24T10:14:04;26.40;95.70
19168;DHT22;9716;53.114;18.040;2022-07-24T10:16:39;26.50;95.30
19168;DHT22;9716;53.114;18.040;2022-07-24T10:19:38;26.70;94.80
19168;DHT22;9716;53.114;18.040;2022-07-24T10:22:11;26.80;94.10
19168;DHT22;9716;53.114;18.040;2022-07-24T10:24:56;26.90;93.60
19168;DHT22;9716;53.114;18.040;2022-07-24T10:27:27;26.90;93.60
19168;DHT22;9716;53.114;18.040;2022-07-24T10:29:58;26.90;93.50
19168;DHT22;9716;53.114;18.040;2022-07-24T10:32:28;27.00;93.10
19168;DHT22;9716;53.114;18.040;2022-07-24T10:35:05;27.00;92.70
19168;DHT22;9716;53.114;18.040;2022-07-24T10:37:43;26.90;92.60
19168;DHT22;9716;53.114;18.040;2022-07-24T10:40:23;26.80;92.90
19168;DHT22;9716;53.114;18.040;2022-07-24T10:43:13;26.90;93.10
19168;DHT22;9716;53.114;18.040;2022-07-24T10:45:44;27.10;92.70
19168;DHT22;9716;53.114;18.040;2022-07-24T10:48:27;27.30;92.70
19168;DHT22;9716;53.114;18.040;2022-07-24T10:51:06;27.50;92.50
19168;DHT22;9716;53.114;18.040;2022-07-24T10:53:47;27.60;92.20
19168;DHT22;9716;53.114;18.040;2022-07-24T10:56:23;27.70;91.90
19168;DHT22;9716;53.114;18.040;2022-07-24T10:58:58;27.80;91.80
19168;DHT22;9716;53.114;18.040;2022-07-24T11:01:34;27.90;91.60
19168;DHT22;9716;53.114;18.040;2022-07-24T11:04:24;28.20;91.20
19168;DHT22;9716;53.114;18.040;2022-07-24T11:06:54;28.30;90.80
19168;DHT22;9716;53.114;18.040;2022-07-24T11:09:25;28.30;90.50
19168;DHT22;9716;53.114;18.040;2022-07-24T11:12:06;28.10;90.50
19168;DHT22;9716;53.114;18.040;2022-07-24T11:14:49;28.00;90.50
19168;DHT22;9716;53.114;18.040;2022-07-24T11:17:38;27.80;90.40
19168;DHT22;9716;53.114;18.040;2022-07-24T11:20:08;27.60;90.80
19168;DHT22;9716;53.114;18.040;2022-07-24T11:22:40;27.40;90.80
19168;DHT22;9716;53.114;18.040;2022-07-24T11:25:12;27.20;91.20
19168;DHT22;9716;53.114;18.040;2022-07-24T11:27:44;27.20;91.30
19168;DHT22;9716;53.114;18.040;2022-07-24T11:30:14;27.20;91.30
19168;DHT22;9716;53.114;18.040;2022-07-24T11:32:43;27.20;91.10
19168;DHT22;9716;53.114;18.040;2022-07-24T11:35:12;27.20;91.20
19168;DHT22;9716;53.114;18.040;2022-07-24T11:37:42;27.30;90.80
19168;DHT22;9716;53.114;18.040;2022-07-24T11:40:15;27.30;90.40
19168;DHT22;9716;53.114;18.040;2022-07-24T11:42:45;27.40;90.20
19168;DHT22;9716;53.114;18.040;2022-07-24T11:45:14;27.50;90.00
19168;DHT22;9716;53.114;18.040;2022-07-24T11:47:46;27.50;89.30
19168;DHT22;9716;53.114;18.040;2022-07-24T11:50:15;27.50;89.10
19168;DHT22;9716;53.114;18.040;2022-07-24T11:52:43;27.40;89.00
19168;DHT22;9716;53.114;18.040;2022-07-24T11:55:15;27.20;89.20
19168;DHT22;9716;53.114;18.040;2022-07-24T11:57:48;27.10;89.20
19168;DHT22;9716;53.114;18.040;2022-07-24T12:00:37;27.10;89.80
19168;DHT22;9716;53.114;18.040;2022-07-24T12:03:06;26.90;89.70
19168;DHT22;9716;53.114;18.040;2022-07-24T12:05:37;26.80;90.00
19168;DHT22;9716;53.114;18.040;2022-07-24T12:08:16;26.70;90.20
19168;DHT22;9716;53.114;18.040;2022-07-24T12:10:45;26.60;90.40
19168;DHT22;9716;53.114;18.040;2022-07-24T12:13:17;26.60;90.50
19168;DHT22;9716;53.114;18.040;2022-07-24T12:15:46;26.60;90.40
19168;DHT22;9716;53.114;18.040;2022-07-24T12:18:15;26.60;90.20
19168;DHT22;9716;53.114;18.040;2022-07-24T12:20:50;26.60;90.20
19168;DHT22;9716;53.114;18.040;2022-07-24T12:23:19;26.60;90.30
19168;DHT22;9716;53.114;18.040;2022-07-24T12:25:49;26.60;90.40
19168;DHT22;9716;53.114;18.040;2022-07-24T12:28:19;26.70;90.50
19168;DHT22;9716;53.114;18.040;2022-07-24T12:30:49;26.80;90.40
19168;DHT22;9716;53.114;18.040;2022-07-24T12:33:21;26.90;90.40
19168;DHT22;9716;53.114;18.040;2022-07-24T12:35:53;27.00;90.20
19168;DHT22;9716;53.114;18.040;2022-07-24T12:38:26;27.20;89.80
19168;DHT22;9716;53.114;18.040;2022-07-24T12:41:04;27.30;89.20
19168;DHT22;9716;53.114;18.040;2022-07-24T12:43:45;27.30;89.40
19168;DHT22;9716;53.114;18.040;2022-07-24T12:46:15;27.30;89.40
19168;DHT22;9716;53.114;18.040;2022-07-24T12:48:59;27.50;89.50
19168;DHT22;9716;53.114;18.040;2022-07-24T12:51:46;27.60;89.40
19168;DHT22;9716;53.114;18.040;2022-07-24T12:54:18;27.70;88.80
19168;DHT22;9716;53.114;18.040;2022-07-24T12:56:49;27.70;88.30
19168;DHT22;9716;53.114;18.040;2022-07-24T12:59:27;27.70;88.00
19168;DHT22;9716;53.114;18.040;2022-07-24T13:01:57;27.70;87.80
19168;DHT22;9716;53.114;18.040;2022-07-24T13:04:27;27.60;87.40
19168;DHT22;9716;53.114;18.040;2022-07-24T13:06:57;27.50;87.30
19168;DHT22;9716;53.114;18.040;2022-07-24T13:09:27;27.40;87.30
19168;DHT22;9716;53.114;18.040;2022-07-24T13:11:57;27.30;87.30
19168;DHT22;9716;53.114;18.040;2022-07-24T13:14:27;27.20;88.10
19168;DHT22;9716;53.114;18.040;2022-07-24T13:17:02;27.30;88.50
19168;DHT22;9716;53.114;18.040;2022-07-24T13:19:31;27.30;88.60
19168;DHT22;9716;53.114;18.040;2022-07-24T13:22:00;27.50;88.70
19168;DHT22;9716;53.114;18.040;2022-07-24T13:24:28;27.60;88.50
19168;DHT22;9716;53.114;18.040;2022-07-24T13:26:58;27.70;87.40
19168;DHT22;9716;53.114;18.040;2022-07-24T13:29:29;27.70;86.80
19168;DHT22;9716;53.114;18.040;2022-07-24T13:31:58;27.60;86.50
19168;DHT22;9716;53.114;18.040;2022-07-24T13:34:27;27.50;86.70
19168;DHT22;9716;53.114;18.040;2022-07-24T13:36:57;27.40;87.30
19168;DHT22;9716;53.114;18.040;2022-07-24T13:39:26;27.40;87.30
19168;DHT22;9716;53.114;18.040;2022-07-24T13:41:55;27.50;86.90
19168;DHT22;9716;53.114;18.040;2022-07-24T13:44:24;27.40;86.60
19168;DHT22;9716;53.114;18.040;2022-07-24T13:46:54;27.20;86.80
19168;DHT22;9716;53.114;18.040;2022-07-24T13:49:23;27.20;87.40
19168;DHT22;9716;53.114;18.040;2022-07-24T13:51:52;27.20;87.70
19168;DHT22;9716;53.114;18.040;2022-07-24T13:54:21;27.20;87.80
19168;DHT22;9716;53.114;18.040;2022-07-24T13:56:50;27.30;88.00
19168;DHT22;9716;53.114;18.040;2022-07-24T13:59:18;27.40;88.00
19168;DHT22;9716;53.114;18.040;2022-07-24T14:01:47;27.50;87.80
19168;DHT22;9716;53.114;18.040;2022-07-24T14:04:18;27.50;87.50
19168;DHT22;9716;53.114;18.040;2022-07-24T14:06:54;27.60;87.20
19168;DHT22;9716;53.114;18.040;2022-07-24T14:09:23;27.60;87.10
19168;DHT22;9716;53.114;18.040;2022-07-24T14:11:52;27.60;86.50
19168;DHT22;9716;53.114;18.040;2022-07-24T14:14:21;27.50;86.30
19168;DHT22;9716;53.114;18.040;2022-07-24T14:16:50;27.50;86.60
19168;DHT22;9716;53.114;18.040;2022-07-24T14:19:20;27.40;86.80
19168;DHT22;9716;53.114;18.040;2022-07-24T14:21:49;27.40;86.90
19168;DHT22;9716;53.114;18.040;2022-07-24T14:24:19;27.30;87.20
19168;DHT22;9716;53.114;18.040;2022-07-24T14:26:48;27.20;87.90
19168;DHT22;9716;53.114;18.040;2022-07-24T14:29:18;27.20;88.30
19168;DHT22;9716;53.114;18.040;2022-07-24T14:31:47;27.00;87.80
19168;DHT22;9716;53.114;18.040;2022-07-24T14:34:16;26.90;88.00
19168;DHT22;9716;53.114;18.040;2022-07-24T14:36:46;26.90;88.10
19168;DHT22;9716;53.114;18.040;2022-07-24T14:39:15;26.80;87.60
19168;DHT22;9716;53.114;18.040;2022-07-24T14:41:44;26.80;87.90
19168;DHT22;9716;53.114;18.040;2022-07-24T14:44:13;26.80;88.60
19168;DHT22;9716;53.114;18.040;2022-07-24T14:46:42;26.90;88.90
19168;DHT22;9716;53.114;18.040;2022-07-24T14:49:11;26.90;89.00
19168;DHT22;9716;53.114;18.040;2022-07-24T14:51:39;27.00;89.00
19168;DHT22;9716;53.114;18.040;2022-07-24T14:54:10;27.10;88.70
19168;DHT22;9716;53.114;18.040;2022-07-24T14:56:39;27.20;88.70
19168;DHT22;9716;53.114;18.040;2022-07-24T14:59:08;27.20;88.10
19168;DHT22;9716;53.114;18.040;2022-07-24T15:01:46;27.10;86.10
19168;DHT22;9716;53.114;18.040;2022-07-24T15:04:15;27.00;85.10
19168;DHT22;9716;53.114;18.040;2022-07-24T15:06:44;26.80;84.60
19168;DHT22;9716;53.114;18.040;2022-07-24T15:09:14;26.70;85.80
19168;DHT22;9716;53.114;18.040;2022-07-24T15:11:43;26.80;87.10
19168;DHT22;9716;53.114;18.040;2022-07-24T15:14:12;26.80;86.60
19168;DHT22;9716;53.114;18.040;2022-07-24T15:16:40;26.70;86.20
19168;DHT22;9716;53.114;18.040;2022-07-24T15:19:09;26.70;85.90
19168;DHT22;9716;53.114;18.040;2022-07-24T15:21:38;26.60;85.80
19168;DHT22;9716;53.114;18.040;2022-07-24T15:24:08;26.40;85.90
19168;DHT22;9716;53.114;18.040;2022-07-24T15:26:38;26.30;86.30
19168;DHT22;9716;53.114;18.040;2022-07-24T15:29:07;26.10;86.70
19168;DHT22;9716;53.114;18.040;2022-07-24T15:31:36;26.10;87.20
19168;DHT22;9716;53.114;18.040;2022-07-24T15:34:06;25.90;87.80
19168;DHT22;9716;53.114;18.040;2022-07-24T15:36:35;25.80;88.80
19168;DHT22;9716;53.114;18.040;2022-07-24T15:39:06;25.70;89.40
19168;DHT22;9716;53.114;18.040;2022-07-24T15:41:36;25.50;89.90
19168;DHT22;9716;53.114;18.040;2022-07-24T15:44:06;25.40;90.20
19168;DHT22;9716;53.114;18.040;2022-07-24T15:46:36;25.30;90.30
19168;DHT22;9716;53.114;18.040;2022-07-24T15:49:06;25.10;90.50
19168;DHT22;9716;53.114;18.040;2022-07-24T15:51:36;25.00;90.70